Back to Top

Language: 

My Weather Underground Personal Weather Station Historical Data with Graphs...

Delerius Weather Station Historical Data
Daily Summary for January 25, 2018 Units:  Metric    English   Both
« Previous Day
Next Day »
Daily Weekly Monthly Yearly Custom
  High: Low: Average:
Temperature: 8.4 °C 1.8 °C 5.9 °C
Dew Point: 4.2 °C 0.6 °C 3.3 °C
Humidity: 93 % 73 % 83 %
Wind Speed: 29 km/h 0 km/h 13.4 km/h
Wind Gust: 49.9 km/h - -
Wind:- - SW
Pressure: 1007.3 hPa 1000.6 hPa -
Precipitation: 0.25 mm    
Historical Graphs
 
 
Tabular Data for January 25, 2018
Time Temperature Dew Point Pressure Wind Wind Speed Wind Gust Humidity Rainfall Rate (Hourly) solar Conditions
00:00 6.3 °C 3.4 °C 1000.6 hPa SW 25.7 km/h 38.6 km/h 82 % 0 mm 0 W/m2
00:05 6.3 °C 3.4 °C 1000.9 hPa WSW 22.5 km/h 37 km/h 82 % 0 mm 0 W/m2
00:10 6.3 °C 3.4 °C 1000.6 hPa SW 22.5 km/h 32.2 km/h 82 % 0 mm 0 W/m2
00:15 6.3 °C 3.6 °C 1000.9 hPa SW 17.7 km/h 22.5 km/h 83 % 0 mm 0 W/m2
00:20 6.3 °C 3.6 °C 1000.9 hPa SW 24.1 km/h 37 km/h 83 % 0 mm 0 W/m2
00:25 6.3 °C 3.6 °C 1000.6 hPa SW 20.9 km/h 33.8 km/h 83 % 0 mm 0 W/m2
00:30 6.3 °C 3.6 °C 1000.6 hPa SW 16.1 km/h 25.7 km/h 83 % 0 mm 0 W/m2
00:35 6.2 °C 3.5 °C 1000.6 hPa SW 20.9 km/h 30.6 km/h 83 % 0 mm 0 W/m2
00:40 6.2 °C 3.5 °C 1000.9 hPa SW 20.9 km/h 32.2 km/h 83 % 0 mm 0 W/m2
00:45 6.3 °C 3.6 °C 1000.9 hPa SW 24.1 km/h 38.6 km/h 83 % 0 mm 0 W/m2
00:50 6.3 °C 3.4 °C 1000.9 hPa SW 20.9 km/h 25.7 km/h 82 % 0 mm 0 W/m2
00:55 6.4 °C 3.6 °C 1000.9 hPa WSW 24.1 km/h 37 km/h 82 % 0 mm 0 W/m2
01:00 6.4 °C 3.6 °C 1000.9 hPa SW 20.9 km/h 33.8 km/h 82 % 0 mm 0 W/m2
01:06 6.4 °C 3.6 °C 1000.9 hPa SW 22.5 km/h 40.2 km/h 82 % 0 mm 0 W/m2
01:11 6.4 °C 3.7 °C 1000.9 hPa SW 24.1 km/h 35.4 km/h 83 % 0 mm 0 W/m2
01:15 6.3 °C 3.8 °C 1000.9 hPa SW 27.4 km/h 49.9 km/h 84 % 0 mm 0 W/m2
01:21 6.4 °C 3.9 °C 1001.2 hPa SW 27.4 km/h 43.5 km/h 84 % 0 mm 0 W/m2
01:26 6.4 °C 3.9 °C 1001.2 hPa WSW 27.4 km/h 41.8 km/h 84 % 0 mm 0 W/m2
01:31 6.4 °C 3.9 °C 1001.2 hPa WSW 22.5 km/h 38.6 km/h 84 % 0 mm 0 W/m2
01:36 6.4 °C 3.7 °C 1001.6 hPa SW 20.9 km/h 33.8 km/h 83 % 0 mm 0 W/m2
01:41 6.3 °C 3.6 °C 1001.2 hPa SW 22.5 km/h 40.2 km/h 83 % 0.25 mm 0 W/m2
01:46 6.1 °C 3.6 °C 1000.9 hPa WSW 19.3 km/h 32.2 km/h 84 % 0.25 mm 0 W/m2
01:51 5.9 °C 3.4 °C 1000.9 hPa SW 19.3 km/h 30.6 km/h 84 % 0.25 mm 0 W/m2
01:56 5.9 °C 3.4 °C 1000.9 hPa WSW 24.1 km/h 35.4 km/h 84 % 0.25 mm 0 W/m2
02:01 5.9 °C 3.4 °C 1000.9 hPa WSW 19.3 km/h 30.6 km/h 84 % 0.25 mm 0 W/m2
02:06 5.8 °C 3.3 °C 1000.9 hPa WSW 20.9 km/h 37 km/h 84 % 0.25 mm 0 W/m2
02:11 5.8 °C 3.3 °C 1000.9 hPa SW 17.7 km/h 25.7 km/h 84 % 0.25 mm 0 W/m2
02:16 5.8 °C 3.3 °C 1000.9 hPa WSW 17.7 km/h 32.2 km/h 84 % 0.25 mm 0 W/m2
02:21 5.8 °C 3.3 °C 1000.9 hPa WSW 20.9 km/h 38.6 km/h 84 % 0.25 mm 0 W/m2
02:26 5.8 °C 3.3 °C 1000.9 hPa SW 20.9 km/h 32.2 km/h 84 % 0.25 mm 0 W/m2
02:31 5.8 °C 3.3 °C 1000.9 hPa WSW 20.9 km/h 33.8 km/h 84 % 0.25 mm 0 W/m2
02:36 5.8 °C 3.3 °C 1000.9 hPa SW 20.9 km/h 43.5 km/h 84 % 0.25 mm 0 W/m2
02:41 5.8 °C 3.3 °C 1000.9 hPa SW 20.9 km/h 33.8 km/h 84 % 0 mm 0 W/m2
02:46 5.9 °C 3.2 °C 1000.9 hPa WSW 25.7 km/h 38.6 km/h 83 % 0 mm 0 W/m2
02:51 6 °C 3.3 °C 1000.9 hPa SW 24.1 km/h 35.4 km/h 83 % 0 mm 0 W/m2
02:56 6.1 °C 3.3 °C 1000.9 hPa SW 20.9 km/h 40.2 km/h 82 % 0 mm 0 W/m2
03:01 6.1 °C 3.3 °C 1000.9 hPa WSW 20.9 km/h 33.8 km/h 82 % 0 mm 0 W/m2
03:06 6.1 °C 3.3 °C 1001.2 hPa WSW 22.5 km/h 33.8 km/h 82 % 0 mm 0 W/m2
03:11 6.2 °C 3.2 °C 1001.2 hPa WSW 24.1 km/h 38.6 km/h 81 % 0 mm 0 W/m2
03:16 6.3 °C 3.3 °C 1001.2 hPa WSW 19.3 km/h 33.8 km/h 81 % 0 mm 0 W/m2
03:21 6.3 °C 3.3 °C 1001.2 hPa WSW 25.7 km/h 41.8 km/h 81 % 0 mm 0 W/m2
03:26 6.3 °C 3.3 °C 1000.9 hPa WSW 20.9 km/h 38.6 km/h 81 % 0 mm 0 W/m2
03:31 6.2 °C 3.2 °C 1000.9 hPa SW 14.5 km/h 24.1 km/h 81 % 0 mm 0 W/m2
03:36 6.1 °C 3.1 °C 1000.9 hPa SW 16.1 km/h 25.7 km/h 81 % 0 mm 0 W/m2
03:41 6.1 °C 3.3 °C 1000.9 hPa SW 20.9 km/h 30.6 km/h 82 % 0 mm 0 W/m2
03:46 6.1 °C 3.3 °C 1000.9 hPa WSW 19.3 km/h 32.2 km/h 82 % 0 mm 0 W/m2
03:51 6.1 °C 3.3 °C 1000.9 hPa WSW 22.5 km/h 35.4 km/h 82 % 0 mm 0 W/m2
03:56 6.2 °C 3.5 °C 1000.9 hPa SW 24.1 km/h 38.6 km/h 83 % 0 mm 0 W/m2
04:01 6.3 °C 3.4 °C 1000.9 hPa SW 27.4 km/h 38.6 km/h 82 % 0 mm 0 W/m2
04:06 6.3 °C 3.4 °C 1000.9 hPa SW 20.9 km/h 33.8 km/h 82 % 0 mm 0 W/m2
04:11 6.4 °C 3.6 °C 1000.9 hPa SW 25.7 km/h 41.8 km/h 82 % 0 mm 0 W/m2
04:16 6.4 °C 3.4 °C 1000.9 hPa SW 24.1 km/h 35.4 km/h 81 % 0 mm 0 W/m2
04:21 6.4 °C 3.2 °C 1000.9 hPa SW 20.9 km/h 30.6 km/h 80 % 0 mm 0 W/m2
04:26 6.3 °C 3.3 °C 1000.9 hPa SW 20.9 km/h 35.4 km/h 81 % 0 mm 0 W/m2
04:31 6.3 °C 3.4 °C 1000.9 hPa SW 24.1 km/h 40.2 km/h 82 % 0 mm 0 W/m2
04:36 6.2 °C 3.3 °C 1000.9 hPa SW 22.5 km/h 32.2 km/h 82 % 0 mm 0 W/m2
04:41 6.2 °C 3.3 °C 1000.9 hPa SW 19.3 km/h 33.8 km/h 82 % 0 mm 0 W/m2
04:46 6.1 °C 3.3 °C 1000.9 hPa SW 20.9 km/h 33.8 km/h 82 % 0 mm 0 W/m2
04:51 6.1 °C 3.3 °C 1000.9 hPa SW 19.3 km/h 32.2 km/h 82 % 0 mm 0 W/m2
04:56 6 °C 3.2 °C 1000.9 hPa SW 17.7 km/h 32.2 km/h 82 % 0 mm 0 W/m2
05:01 5.9 °C 3.1 °C 1000.9 hPa SW 19.3 km/h 32.2 km/h 82 % 0 mm 0 W/m2
05:06 5.9 °C 3.1 °C 1001.2 hPa SW 19.3 km/h 30.6 km/h 82 % 0 mm 0 W/m2
05:11 5.8 °C 2.9 °C 1001.2 hPa SW 17.7 km/h 25.7 km/h 82 % 0 mm 0 W/m2
05:16 5.8 °C 2.9 °C 1001.2 hPa WSW 19.3 km/h 33.8 km/h 82 % 0 mm 0 W/m2
05:21 5.7 °C 2.9 °C 1001.2 hPa WSW 20.9 km/h 33.8 km/h 82 % 0 mm 0 W/m2
05:26 5.7 °C 3.1 °C 1001.2 hPa WSW 24.1 km/h 33.8 km/h 83 % 0 mm 0 W/m2
05:31 5.7 °C 3.1 °C 1001.2 hPa SW 22.5 km/h 33.8 km/h 83 % 0 mm 0 W/m2
05:36 5.7 °C 3.1 °C 1001.6 hPa WSW 19.3 km/h 32.2 km/h 83 % 0 mm 0 W/m2
05:41 5.7 °C 3.2 °C 1001.6 hPa SW 17.7 km/h 25.7 km/h 84 % 0 mm 0 W/m2
05:46 5.7 °C 3.2 °C 1001.2 hPa SW 16.1 km/h 22.5 km/h 84 % 0 mm 0 W/m2
05:52 5.6 °C 3.1 °C 1001.6 hPa SW 12.9 km/h 19.3 km/h 84 % 0 mm 0 W/m2
05:56 5.6 °C 3.1 °C 1001.6 hPa SW 11.3 km/h 19.3 km/h 84 % 0 mm 0 W/m2
06:02 5.6 °C 3.1 °C 1001.6 hPa SW 11.3 km/h 16.1 km/h 84 % 0 mm 0 W/m2
06:07 5.5 °C 3 °C 1001.6 hPa SW 12.9 km/h 19.3 km/h 84 % 0 mm 0 W/m2
06:12 5.5 °C 3 °C 1001.6 hPa SW 14.5 km/h 19.3 km/h 84 % 0 mm 0 W/m2
06:17 5.5 °C 3 °C 1001.6 hPa SW 14.5 km/h 22.5 km/h 84 % 0 mm 0 W/m2
06:22 5.5 °C 3 °C 1001.6 hPa SW 14.5 km/h 29 km/h 84 % 0 mm 0 W/m2
06:27 5.5 °C 3 °C 1001.6 hPa SW 14.5 km/h 25.7 km/h 84 % 0 mm 0 W/m2
06:32 5.4 °C 2.9 °C 1001.6 hPa SW 17.7 km/h 29 km/h 84 % 0 mm 0 W/m2
06:37 5.4 °C 2.7 °C 1001.6 hPa SW 20.9 km/h 30.6 km/h 83 % 0 mm 0 W/m2
06:42 5.4 °C 2.7 °C 1001.6 hPa SW 17.7 km/h 32.2 km/h 83 % 0 mm 0 W/m2
06:47 5.4 °C 2.7 °C 1001.6 hPa SW 19.3 km/h 32.2 km/h 83 % 0 mm 0 W/m2
06:52 5.3 °C 2.7 °C 1001.2 hPa SW 19.3 km/h 32.2 km/h 83 % 0 mm 0 W/m2
06:57 5.3 °C 2.7 °C 1001.6 hPa SW 20.9 km/h 29 km/h 83 % 0 mm 0 W/m2
07:02 5.3 °C 2.7 °C 1001.6 hPa SW 17.7 km/h 25.7 km/h 83 % 0 mm 0 W/m2
07:07 5.3 °C 2.7 °C 1001.6 hPa SW 14.5 km/h 24.1 km/h 83 % 0 mm 0 W/m2
07:12 5.2 °C 2.6 °C 1001.6 hPa SW 19.3 km/h 29 km/h 83 % 0 mm 0 W/m2
07:17 5.2 °C 2.6 °C 1001.6 hPa SW 16.1 km/h 30.6 km/h 83 % 0 mm 0 W/m2
07:22 5.2 °C 2.6 °C 1001.6 hPa SW 14.5 km/h 29 km/h 83 % 0 mm 0 W/m2
07:27 5.2 °C 2.7 °C 1001.6 hPa SW 16.1 km/h 30.6 km/h 84 % 0 mm 0 W/m2
07:32 5.3 °C 2.7 °C 1001.6 hPa SW 14.5 km/h 22.5 km/h 83 % 0 mm 0 W/m2
07:37 5.2 °C 2.7 °C 1001.6 hPa SW 19.3 km/h 33.8 km/h 84 % 0 mm 0 W/m2
07:42 5.2 °C 2.7 °C 1001.6 hPa SW 11.3 km/h 20.9 km/h 84 % 0 mm 0 W/m2
07:47 5.1 °C 2.6 °C 1001.6 hPa SW 12.9 km/h 17.7 km/h 84 % 0 mm 0 W/m2
07:52 5 °C 2.5 °C 1001.6 hPa SW 9.7 km/h 19.3 km/h 84 % 0 mm 0 W/m2
07:57 4.9 °C 2.6 °C 1001.6 hPa SSW 14.5 km/h 24.1 km/h 85 % 0 mm 0 W/m2
08:02 4.9 °C 2.6 °C 1001.6 hPa SW 11.3 km/h 22.5 km/h 85 % 0 mm 5 W/m2
08:07 4.9 °C 2.6 °C 1001.6 hPa SW 16.1 km/h 24.1 km/h 85 % 0 mm 7 W/m2
08:12 4.9 °C 2.4 °C 1001.6 hPa SW 12.9 km/h 20.9 km/h 84 % 0 mm 11 W/m2
08:17 5 °C 2.5 °C 1001.6 hPa SW 14.5 km/h 20.9 km/h 84 % 0 mm 14 W/m2
08:22 5.1 °C 2.6 °C 1001.6 hPa SW 19.3 km/h 33.8 km/h 84 % 0 mm 21 W/m2
08:27 5.2 °C 2.7 °C 1001.6 hPa SW 16.1 km/h 22.5 km/h 84 % 0 mm 25 W/m2
08:32 5.2 °C 2.7 °C 1001.6 hPa SW 12.9 km/h 19.3 km/h 84 % 0 mm 28 W/m2
08:37 5.2 °C 2.7 °C 1001.6 hPa SW 16.1 km/h 29 km/h 84 % 0 mm 30 W/m2
08:42 5.3 °C 2.7 °C 1001.6 hPa WSW 16.1 km/h 29 km/h 83 % 0 mm 33 W/m2
08:47 5.3 °C 2.8 °C 1001.6 hPa SW 11.3 km/h 16.1 km/h 84 % 0 mm 30 W/m2
08:52 5.3 °C 2.8 °C 1001.6 hPa SW 12.9 km/h 19.3 km/h 84 % 0 mm 28 W/m2
08:57 5.3 °C 2.8 °C 1001.6 hPa SW 20.9 km/h 37 km/h 84 % 0 mm 30 W/m2
09:02 5.4 °C 2.9 °C 1001.6 hPa SW 9.7 km/h 17.7 km/h 84 % 0 mm 32 W/m2
09:07 5.4 °C 2.9 °C 1001.6 hPa WSW 9.7 km/h 16.1 km/h 84 % 0 mm 30 W/m2
09:13 5.5 °C 3 °C 1001.6 hPa SW 12.9 km/h 19.3 km/h 84 % 0 mm 30 W/m2
09:17 5.5 °C 3 °C 1001.6 hPa SW 11.3 km/h 19.3 km/h 84 % 0 mm 33 W/m2
09:23 5.6 °C 2.9 °C 1001.6 hPa WSW 14.5 km/h 29 km/h 83 % 0 mm 35 W/m2
09:28 5.6 °C 2.9 °C 1001.6 hPa SW 14.5 km/h 20.9 km/h 83 % 0 mm 40 W/m2
09:33 5.7 °C 3.1 °C 1001.9 hPa SW 14.5 km/h 25.7 km/h 83 % 0 mm 151 W/m2
09:38 5.8 °C 3.1 °C 1001.9 hPa SW 17.7 km/h 25.7 km/h 83 % 0 mm 155 W/m2
09:43 6 °C 3.3 °C 1001.9 hPa SW 11.3 km/h 24.1 km/h 83 % 0 mm 171 W/m2
09:48 6.1 °C 3.3 °C 1001.9 hPa SW 17.7 km/h 30.6 km/h 82 % 0 mm 176 W/m2
09:53 6.2 °C 3.2 °C 1001.9 hPa SW 16.1 km/h 25.7 km/h 81 % 0 mm 193 W/m2
09:58 6.3 °C 3.3 °C 1002.3 hPa SW 11.3 km/h 20.9 km/h 81 % 0 mm 218 W/m2
10:03 6.4 °C 3.4 °C 1001.9 hPa WSW 14.5 km/h 22.5 km/h 81 % 0 mm 234 W/m2
10:08 6.5 °C 3.3 °C 1002.3 hPa SW 11.3 km/h 19.3 km/h 80 % 0 mm 250 W/m2
10:13 6.7 °C 3.5 °C 1002.3 hPa WSW 17.7 km/h 25.7 km/h 80 % 0 mm 271 W/m2
10:18 6.8 °C 3.6 °C 1001.9 hPa SW 16.1 km/h 32.2 km/h 80 % 0 mm 287 W/m2
10:23 6.9 °C 3.5 °C 1001.9 hPa SW 20.9 km/h 35.4 km/h 79 % 0 mm 304 W/m2
10:28 7 °C 3.6 °C 1002.3 hPa SW 17.7 km/h 33.8 km/h 79 % 0 mm 278 W/m2
10:33 7.1 °C 3.7 °C 1001.9 hPa SW 8 km/h 16.1 km/h 79 % 0 mm 287 W/m2
10:38 7.3 °C 3.9 °C 1001.9 hPa SSW 9.7 km/h 17.7 km/h 79 % 0 mm 264 W/m2
10:43 7.4 °C 3.8 °C 1002.3 hPa SSW 9.7 km/h 20.9 km/h 78 % 0 mm 297 W/m2
10:48 7.4 °C 3.8 °C 1002.3 hPa WSW 16.1 km/h 25.7 km/h 78 % 0 mm 330 W/m2
10:53 7.6 °C 3.8 °C 1002.3 hPa SW 12.9 km/h 25.7 km/h 77 % 0 mm 364 W/m2
10:58 7.7 °C 3.9 °C 1002.3 hPa SSW 17.7 km/h 29 km/h 77 % 0 mm 244 W/m2
11:03 7.7 °C 3.9 °C 1002.3 hPa SW 19.3 km/h 30.6 km/h 77 % 0 mm 271 W/m2
11:08 7.7 °C 3.9 °C 1001.9 hPa SW 24.1 km/h 35.4 km/h 77 % 0 mm 353 W/m2
11:13 7.8 °C 4 °C 1001.9 hPa WSW 22.5 km/h 35.4 km/h 77 % 0 mm 383 W/m2
11:18 8 °C 4 °C 1001.9 hPa SW 20.9 km/h 33.8 km/h 76 % 0 mm 408 W/m2
11:23 8.1 °C 3.9 °C 1001.9 hPa SW 17.7 km/h 33.8 km/h 75 % 0 mm 311 W/m2
11:28 8.1 °C 3.9 °C 1001.9 hPa SW 24.1 km/h 41.8 km/h 75 % 0 mm 77 W/m2
11:33 7.9 °C 3.7 °C 1001.9 hPa SW 22.5 km/h 33.8 km/h 75 % 0 mm 104 W/m2
11:38 7.8 °C 3.8 °C 1001.9 hPa SW 19.3 km/h 29 km/h 76 % 0 mm 327 W/m2
11:43 7.9 °C 3.9 °C 1001.9 hPa SW 16.1 km/h 29 km/h 76 % 0 mm 332 W/m2
11:48 8 °C 3.8 °C 1001.9 hPa SW 24.1 km/h 37 km/h 75 % 0 mm 338 W/m2
11:53 8.1 °C 3.9 °C 1001.9 hPa SW 14.5 km/h 22.5 km/h 75 % 0 mm 325 W/m2
11:58 8.2 °C 4.1 °C 1001.9 hPa SW 16.1 km/h 24.1 km/h 75 % 0 mm 332 W/m2
12:03 8.2 °C 3.8 °C 1001.9 hPa SW 22.5 km/h 33.8 km/h 74 % 0 mm 315 W/m2
12:08 8.2 °C 4.1 °C 1001.9 hPa SSW 20.9 km/h 30.6 km/h 75 % 0 mm 346 W/m2
12:14 8.2 °C 3.8 °C 1001.9 hPa SW 17.7 km/h 33.8 km/h 74 % 0 mm 336 W/m2
12:19 8.3 °C 3.9 °C 1001.9 hPa SSW 17.7 km/h 29 km/h 74 % 0 mm 378 W/m2
12:24 8.4 °C 4.2 °C 1002.3 hPa SSW 16.1 km/h 29 km/h 75 % 0 mm 381 W/m2
12:29 8.4 °C 4.1 °C 1002.6 hPa SW 20.9 km/h 32.2 km/h 74 % 0 mm 359 W/m2
12:34 8.3 °C 3.9 °C 1002.6 hPa SW 14.5 km/h 22.5 km/h 74 % 0 mm 243 W/m2
12:39 8.2 °C 4.1 °C 1002.6 hPa SW 16.1 km/h 32.2 km/h 75 % 0 mm 239 W/m2
12:44 8.2 °C 4.1 °C 1002.6 hPa SSW 20.9 km/h 35.4 km/h 75 % 0 mm 466 W/m2
12:49 8.2 °C 3.8 °C 1002.6 hPa SSW 16.1 km/h 22.5 km/h 74 % 0 mm 204 W/m2
12:54 8.2 °C 4.1 °C 1002.3 hPa SW 12.9 km/h 20.9 km/h 75 % 0 mm 160 W/m2
12:59 8.2 °C 3.8 °C 1002.3 hPa SW 14.5 km/h 24.1 km/h 74 % 0 mm 97 W/m2
13:04 8.1 °C 3.7 °C 1002.3 hPa SSW 9.7 km/h 14.5 km/h 74 % 0 mm 77 W/m2
13:09 8.1 °C 3.9 °C 1002.3 hPa SSW 12.9 km/h 20.9 km/h 75 % 0 mm 91 W/m2
13:14 8 °C 3.7 °C 1002.3 hPa SSW 12.9 km/h 19.3 km/h 74 % 0 mm 107 W/m2
13:19 8 °C 3.8 °C 1002.3 hPa South 11.3 km/h 19.3 km/h 75 % 0 mm 113 W/m2
13:24 8 °C 3.8 °C 1001.9 hPa SSW 11.3 km/h 19.3 km/h 75 % 0 mm 90 W/m2
13:29 8 °C 3.8 °C 1001.9 hPa SSW 14.5 km/h 22.5 km/h 75 % 0 mm 56 W/m2
13:34 8 °C 3.8 °C 1002.3 hPa SW 14.5 km/h 25.7 km/h 75 % 0 mm 67 W/m2
13:39 7.9 °C 3.7 °C 1001.9 hPa SSW 19.3 km/h 32.2 km/h 75 % 0 mm 63 W/m2
13:44 7.9 °C 3.7 °C 1001.9 hPa SSW 12.9 km/h 22.5 km/h 75 % 0 mm 74 W/m2
13:49 7.8 °C 3.7 °C 1001.9 hPa SW 14.5 km/h 20.9 km/h 75 % 0 mm 67 W/m2
13:54 7.9 °C 3.9 °C 1001.9 hPa SSW 8 km/h 14.5 km/h 76 % 0 mm 76 W/m2
13:59 7.9 °C 3.9 °C 1001.9 hPa SW 12.9 km/h 24.1 km/h 76 % 0 mm 69 W/m2
14:04 7.9 °C 3.9 °C 1001.9 hPa South 16.1 km/h 29 km/h 76 % 0 mm 109 W/m2
14:09 7.9 °C 3.6 °C 1001.6 hPa SW 20.9 km/h 32.2 km/h 74 % 0 mm 244 W/m2
14:14 8 °C 3.8 °C 1001.6 hPa SW 14.5 km/h 20.9 km/h 75 % 0 mm 144 W/m2
14:19 8.1 °C 3.7 °C 1001.6 hPa SSW 16.1 km/h 25.7 km/h 74 % 0 mm 148 W/m2
14:24 8.1 °C 3.7 °C 1001.6 hPa SSW 12.9 km/h 19.3 km/h 74 % 0 mm 121 W/m2
14:29 8.1 °C 3.6 °C 1001.2 hPa South 29 km/h 43.5 km/h 73 % 0 mm 98 W/m2
14:34 8.1 °C 3.6 °C 1001.2 hPa South 20.9 km/h 32.2 km/h 73 % 0 mm 56 W/m2
14:39 7.9 °C 3.6 °C 1001.2 hPa SSW 12.9 km/h 22.5 km/h 74 % 0 mm 56 W/m2
14:45 7.8 °C 3.7 °C 1001.6 hPa SSW 12.9 km/h 19.3 km/h 75 % 0 mm 56 W/m2
14:49 7.7 °C 3.6 °C 1001.6 hPa SW 17.7 km/h 29 km/h 75 % 0 mm 46 W/m2
14:54 7.7 °C 3.7 °C 1001.6 hPa SSW 11.3 km/h 17.7 km/h 76 % 0 mm 51 W/m2
15:00 7.6 °C 3.6 °C 1001.6 hPa SW 14.5 km/h 22.5 km/h 76 % 0 mm 58 W/m2
15:05 7.6 °C 3.6 °C 1001.6 hPa South 16.1 km/h 24.1 km/h 76 % 0 mm 70 W/m2
15:10 7.6 °C 3.8 °C 1001.6 hPa South 14.5 km/h 20.9 km/h 77 % 0 mm 120 W/m2
15:15 7.6 °C 3.8 °C 1001.6 hPa South 11.3 km/h 19.3 km/h 77 % 0 mm 88 W/m2
15:20 7.6 °C 3.8 °C 1001.6 hPa SSW 14.5 km/h 22.5 km/h 77 % 0 mm 47 W/m2
15:25 7.6 °C 3.8 °C 1001.6 hPa South 16.1 km/h 24.1 km/h 77 % 0 mm 32 W/m2
15:30 7.6 °C 3.8 °C 1001.6 hPa SSW 12.9 km/h 29 km/h 77 % 0 mm 16 W/m2
15:35 7.6 °C 4 °C 1001.9 hPa SW 14.5 km/h 24.1 km/h 78 % 0 mm 21 W/m2
15:40 7.4 °C 4 °C 1001.9 hPa SW 22.5 km/h 41.8 km/h 79 % 0 mm 63 W/m2
15:45 7.2 °C 4.2 °C 1001.9 hPa SSW 19.3 km/h 37 km/h 81 % 0 mm 49 W/m2
15:50 6.9 °C 4.2 °C 1001.9 hPa SW 16.1 km/h 25.7 km/h 83 % 0 mm 40 W/m2
15:55 6.7 °C 4 °C 1001.9 hPa SW 17.7 km/h 22.5 km/h 83 % 0 mm 42 W/m2
16:00 6.6 °C 3.9 °C 1001.6 hPa SW 12.9 km/h 16.1 km/h 83 % 0 mm 39 W/m2
16:05 6.5 °C 4 °C 1001.9 hPa SSW 14.5 km/h 22.5 km/h 84 % 0 mm 30 W/m2
16:10 6.4 °C 3.9 °C 1001.9 hPa SSW 12.9 km/h 20.9 km/h 84 % 0 mm 16 W/m2
16:15 6.3 °C 3.8 °C 1001.9 hPa SSW 17.7 km/h 24.1 km/h 84 % 0 mm 7 W/m2
16:20 6.3 °C 3.8 °C 1001.9 hPa SSW 16.1 km/h 24.1 km/h 84 % 0 mm 7 W/m2
16:25 6.2 °C 3.7 °C 1001.9 hPa SSW 17.7 km/h 30.6 km/h 84 % 0 mm 5 W/m2
16:30 6.1 °C 3.6 °C 1001.9 hPa SW 17.7 km/h 24.1 km/h 84 % 0 mm 5 W/m2
16:35 6.1 °C 3.6 °C 1001.6 hPa SSW 19.3 km/h 30.6 km/h 84 % 0 mm 0 W/m2
16:40 6 °C 3.7 °C 1001.6 hPa SSW 16.1 km/h 25.7 km/h 85 % 0 mm 0 W/m2
16:45 5.9 °C 3.6 °C 1001.6 hPa SSW 14.5 km/h 22.5 km/h 85 % 0 mm 0 W/m2
16:50 5.9 °C 3.7 °C 1001.6 hPa SSW 12.9 km/h 20.9 km/h 86 % 0 mm 0 W/m2
16:55 5.8 °C 3.6 °C 1001.6 hPa SW 9.7 km/h 14.5 km/h 86 % 0 mm 0 W/m2
17:00 5.8 °C 3.6 °C 1001.9 hPa SW 9.7 km/h 14.5 km/h 86 % 0 mm 0 W/m2
17:05 5.8 °C 3.8 °C 1001.9 hPa SSW 9.7 km/h 14.5 km/h 87 % 0 mm 0 W/m2
17:10 5.8 °C 3.8 °C 1001.9 hPa SW 6.4 km/h 14.5 km/h 87 % 0 mm 0 W/m2
17:14 5.8 °C 3.9 °C 1001.9 hPa SW 8 km/h 14.5 km/h 88 % 0 mm 0 W/m2
17:19 5.8 °C 3.9 °C 1002.3 hPa South 3.2 km/h 8 km/h 88 % 0 mm 0 W/m2
17:24 5.8 °C 3.9 °C 1002.3 hPa SW 6.4 km/h 12.9 km/h 88 % 0 mm 0 W/m2
17:29 5.9 °C 4.1 °C 1002.3 hPa SW 3.2 km/h 8 km/h 88 % 0 mm 0 W/m2
17:34 5.9 °C 4.1 °C 1002.3 hPa SSW 6.4 km/h 12.9 km/h 88 % 0 mm 0 W/m2
17:39 5.9 °C 4.1 °C 1002.3 hPa SSW 6.4 km/h 12.9 km/h 88 % 0 mm 0 W/m2
17:44 6 °C 4.2 °C 1002.3 hPa SSW 9.7 km/h 14.5 km/h 88 % 0 mm 0 W/m2
17:49 6 °C 4.2 °C 1002.6 hPa SW 8 km/h 12.9 km/h 88 % 0 mm 0 W/m2
17:54 6 °C 4 °C 1002.6 hPa WSW 1.6 km/h 6.4 km/h 87 % 0 mm 0 W/m2
17:59 6 °C 4 °C 1002.6 hPa WSW 3.2 km/h 9.7 km/h 87 % 0 mm 0 W/m2
18:04 6.1 °C 4.1 °C 1002.9 hPa SW 3.2 km/h 8 km/h 87 % 0 mm 0 W/m2
18:09 6.1 °C 4.1 °C 1002.9 hPa SW 4.8 km/h 11.3 km/h 87 % 0 mm 0 W/m2
18:14 6.1 °C 4.1 °C 1002.9 hPa SW 8 km/h 11.3 km/h 87 % 0 mm 0 W/m2
18:19 6.1 °C 4.1 °C 1002.9 hPa SW 3.2 km/h 8 km/h 87 % 0 mm 0 W/m2
18:24 6 °C 4 °C 1002.9 hPa SW 3.2 km/h 8 km/h 87 % 0 mm 0 W/m2
18:29 6 °C 4 °C 1002.9 hPa Calm   4.8 km/h 87 % 0 mm 0 W/m2
18:34 5.9 °C 3.9 °C 1002.9 hPa SSW 3.2 km/h 8 km/h 87 % 0 mm 0 W/m2
18:39 5.8 °C 3.8 °C 1003.3 hPa Calm   3.2 km/h 87 % 0 mm 0 W/m2
18:44 5.8 °C 3.6 °C 1003.6 hPa Calm   4.8 km/h 86 % 0 mm 0 W/m2
18:49 5.7 °C 3.7 °C 1003.6 hPa SW 1.6 km/h 6.4 km/h 87 % 0 mm 0 W/m2
18:54 5.7 °C 3.7 °C 1003.6 hPa SSE 6.4 km/h 8 km/h 87 % 0 mm 0 W/m2
18:59 5.7 °C 3.7 °C 1003.6 hPa SSE 9.7 km/h 12.9 km/h 87 % 0 mm 0 W/m2
19:04 5.7 °C 3.7 °C 1003.6 hPa SE 6.4 km/h 9.7 km/h 87 % 0 mm 0 W/m2
19:09 5.7 °C 3.7 °C 1003.6 hPa SSE 8 km/h 12.9 km/h 87 % 0 mm 0 W/m2
19:14 5.7 °C 3.7 °C 1003.6 hPa SSE 11.3 km/h 16.1 km/h 87 % 0 mm 0 W/m2
19:19 5.7 °C 3.7 °C 1003.6 hPa South 8 km/h 12.9 km/h 87 % 0 mm 0 W/m2
19:24 5.7 °C 3.7 °C 1003.9 hPa South 9.7 km/h 14.5 km/h 87 % 0 mm 0 W/m2
19:30 5.7 °C 3.7 °C 1003.9 hPa South 9.7 km/h 16.1 km/h 87 % 0 mm 0 W/m2
19:34 5.7 °C 3.7 °C 1003.9 hPa SSW 9.7 km/h 16.1 km/h 87 % 0 mm 0 W/m2
19:40 5.7 °C 3.7 °C 1003.9 hPa SSW 6.4 km/h 11.3 km/h 87 % 0 mm 0 W/m2
19:45 5.7 °C 3.7 °C 1004.3 hPa SSW 6.4 km/h 11.3 km/h 87 % 0 mm 0 W/m2
19:50 5.6 °C 3.6 °C 1004.3 hPa SSW 6.4 km/h 16.1 km/h 87 % 0 mm 0 W/m2
19:55 5.6 °C 3.6 °C 1004.3 hPa SW 8 km/h 14.5 km/h 87 % 0 mm 0 W/m2
20:00 5.5 °C 3.5 °C 1004.3 hPa SW 9.7 km/h 12.9 km/h 87 % 0 mm 0 W/m2
20:05 5.4 °C 3.4 °C 1004.3 hPa SSW 6.4 km/h 9.7 km/h 87 % 0 mm 0 W/m2
20:10 5.3 °C 3.3 °C 1004.3 hPa SW 8 km/h 12.9 km/h 87 % 0 mm 0 W/m2
20:15 5.3 °C 3.5 °C 1004.3 hPa SW 3.2 km/h 8 km/h 88 % 0 mm 0 W/m2
20:20 5.2 °C 3.4 °C 1004.3 hPa SW 3.2 km/h 6.4 km/h 88 % 0 mm 0 W/m2
20:25 5.1 °C 3.3 °C 1004.3 hPa SW 6.4 km/h 9.7 km/h 88 % 0 mm 0 W/m2
20:30 5.1 °C 3.3 °C 1004.3 hPa WSW 3.2 km/h 8 km/h 88 % 0 mm 0 W/m2
20:35 4.9 °C 3.1 °C 1004.6 hPa SW 6.4 km/h 12.9 km/h 88 % 0 mm 0 W/m2
20:40 4.9 °C 3.1 °C 1004.3 hPa Calm   1.6 km/h 88 % 0 mm 0 W/m2
20:45 4.8 °C 3 °C 1004.6 hPa Calm     88 % 0 mm 0 W/m2
20:50 4.7 °C 2.9 °C 1004.6 hPa Calm   3.2 km/h 88 % 0 mm 0 W/m2
20:55 4.5 °C 2.7 °C 1004.6 hPa SW 1.6 km/h 4.8 km/h 88 % 0 mm 0 W/m2
21:00 4.4 °C 2.7 °C 1004.6 hPa SW 1.6 km/h 3.2 km/h 89 % 0 mm 0 W/m2
21:05 4.3 °C 2.7 °C 1004.6 hPa Calm   1.6 km/h 89 % 0 mm 0 W/m2
21:10 4.2 °C 2.6 °C 1005 hPa Calm     89 % 0 mm 0 W/m2
21:15 4 °C 2.3 °C 1005 hPa Calm   4.8 km/h 89 % 0 mm 0 W/m2
21:20 3.9 °C 2.4 °C 1005 hPa SSW 1.6 km/h 3.2 km/h 90 % 0 mm 0 W/m2
21:25 3.8 °C 2.3 °C 1005 hPa Calm   1.6 km/h 90 % 0 mm 0 W/m2
21:30 3.8 °C 2.3 °C 1005 hPa Calm     90 % 0 mm 0 W/m2
21:35 3.7 °C 2.2 °C 1005 hPa Calm   1.6 km/h 90 % 0 mm 0 W/m2
21:40 3.6 °C 2.1 °C 1005.3 hPa Calm   3.2 km/h 90 % 0 mm 0 W/m2
21:45 3.6 °C 2.3 °C 1005.3 hPa Calm     91 % 0 mm 0 W/m2
21:50 3.4 °C 2.1 °C 1005.3 hPa Calm     91 % 0 mm 0 W/m2
21:55 3.4 °C 2.1 °C 1005.6 hPa Calm     91 % 0 mm 0 W/m2
22:00 3.3 °C 1.9 °C 1005.6 hPa Calm     91 % 0 mm 0 W/m2
22:05 3.3 °C 1.9 °C 1006 hPa Calm     91 % 0 mm 0 W/m2
22:11 3.3 °C 2.1 °C 1006 hPa Calm     92 % 0 mm 0 W/m2
22:16 3.4 °C 2.2 °C 1006 hPa Calm     92 % 0 mm 0 W/m2
22:21 3.4 °C 2.2 °C 1006 hPa SSW 1.6 km/h 6.4 km/h 92 % 0 mm 0 W/m2
22:26 3.6 °C 2.6 °C 1006 hPa Calm   1.6 km/h 93 % 0 mm 0 W/m2
22:31 3.6 °C 2.4 °C 1006 hPa Calm     92 % 0 mm 0 W/m2
22:36 3.4 °C 2.2 °C 1006.3 hPa Calm     92 % 0 mm 0 W/m2
22:41 3.3 °C 2.1 °C 1006.3 hPa Calm     92 % 0 mm 0 W/m2
22:46 3.2 °C 2 °C 1006.3 hPa Calm     92 % 0 mm 0 W/m2
22:51 3.2 °C 2 °C 1006.3 hPa Calm     92 % 0 mm 0 W/m2
22:54 3.1 °C 1.9 °C 1006.3 hPa Calm     92 % 0 mm 0 W/m2
22:59 2.9 °C 1.7 °C 1006.3 hPa Calm     92 % 0 mm 0 W/m2
23:04 2.9 °C 1.7 °C 1006.7 hPa Calm     92 % 0 mm 0 W/m2
23:09 2.8 °C 1.6 °C 1006.7 hPa Calm     92 % 0 mm 0 W/m2
23:14 2.8 °C 1.8 °C 1006.7 hPa Calm     93 % 0 mm 0 W/m2
23:19 2.7 °C 1.6 °C 1006.7 hPa Calm     92 % 0 mm 0 W/m2
23:24 2.6 °C 1.4 °C 1007 hPa Calm     92 % 0 mm 0 W/m2
23:29 2.4 °C 1.4 °C 1007 hPa Calm     93 % 0 mm 0 W/m2
23:34 2.4 °C 1.4 °C 1007 hPa Calm     93 % 0 mm 0 W/m2
23:39 2.2 °C 1.2 °C 1007 hPa Calm   3.2 km/h 93 % 0 mm 0 W/m2
23:44 2.2 °C 1.2 °C 1007.3 hPa NNW 1.6 km/h 6.4 km/h 93 % 0 mm 0 W/m2
23:49 2.2 °C 1.2 °C 1007.3 hPa Calm   1.6 km/h 93 % 0 mm 0 W/m2
23:54 2.1 °C 1.1 °C 1007.3 hPa Calm     93 % 0 mm 0 W/m2
23:59 1.8 °C 0.6 °C 1007.3 hPa Calm     92 % 0 mm 0 W/m2
Delerius-Weather
Compliments of Weather Underground - 2.25 mb

Data updates at regular intervals.